Time;durP1;ratioP1;P1;durP2;ratioP2;P2;SDS_P1;SDS_P2;PMS_P1;PMS_P2;Temp;Humidity;BMP_temperature;BMP_pressure;BME280_temperature;BME280_humidity;BME280_pressure;Samples;Min_cycle;Max_cycle;Signal;HPM_P1;HPM_P2
2023/04/14 00:00:20;;;;;;;16.25;4.20;;;;;;;3.33;100.00;100849.16;5225414;28;20051;-72
2023/04/14 00:02:51;;;;;;;11.05;3.83;;;;;;;3.34;100.00;100857.00;5225007;28;20075;-74
2023/04/14 00:05:21;;;;;;;15.23;3.35;;;;;;;3.34;100.00;100857.00;5225202;28;20556;-75
2023/04/14 00:07:52;;;;;;;12.48;4.20;;;;;;;3.35;100.00;100861.31;5224554;28;20033;-74
2023/04/14 00:10:23;;;;;;;12.73;3.58;;;;;;;3.31;100.00;100867.84;5225018;28;20032;-75
2023/04/14 00:12:55;;;;;;;12.73;3.70;;;;;;;3.25;100.00;100863.00;5224741;28;20575;-74
2023/04/14 00:15:25;;;;;;;9.43;2.90;;;;;;;3.18;100.00;100872.41;5225221;28;20115;-74
2023/04/14 00:17:56;;;;;;;12.13;3.88;;;;;;;3.14;100.00;100870.09;5223700;28;20545;-74
2023/04/14 00:20:26;;;;;;;12.98;3.28;;;;;;;3.07;100.00;100873.22;5224964;28;20062;-75
2023/04/14 00:22:57;;;;;;;11.77;3.45;;;;;;;3.04;100.00;100872.63;5224455;28;20099;-74
2023/04/14 00:25:30;;;;;;;15.98;4.20;;;;;;;3.00;100.00;100868.50;5224619;28;20085;-74
2023/04/14 00:28:00;;;;;;;14.90;3.30;;;;;;;2.98;100.00;100875.75;5206303;28;20017;-74
2023/04/14 00:30:31;;;;;;;9.15;3.35;;;;;;;2.91;100.00;100875.34;5224531;28;20085;-75
2023/04/14 00:33:01;;;;;;;12.63;3.55;;;;;;;2.86;100.00;100880.13;5224635;28;20021;-74
2023/04/14 00:35:32;;;;;;;17.23;3.70;;;;;;;2.83;100.00;100867.16;5224593;28;20062;-74
2023/04/14 00:38:02;;;;;;;9.10;2.90;;;;;;;2.83;100.00;100872.44;5223877;28;20027;-75
2023/04/14 00:40:33;;;;;;;9.32;3.33;;;;;;;2.85;100.00;100871.34;5223698;28;20566;-75
2023/04/14 00:43:03;;;;;;;20.67;3.33;;;;;;;2.87;100.00;100873.06;5223902;28;20033;-74
2023/04/14 00:45:43;;;;;;;10.55;2.95;;;;;;;2.89;100.00;100871.97;5224486;28;20066;-74
2023/04/14 00:48:14;;;;;;;11.85;3.53;;;;;;;2.89;100.00;100871.97;5224031;28;20029;-74
2023/04/14 00:50:46;;;;;;;17.30;2.90;;;;;;;2.87;100.00;100878.38;5206448;28;20028;-74
2023/04/14 00:53:16;;;;;;;12.20;2.75;;;;;;;2.87;100.00;100873.91;5223663;28;20167;-74
2023/04/14 00:55:47;;;;;;;11.38;3.30;;;;;;;2.90;100.00;100875.47;5224668;28;20112;-75
2023/04/14 00:58:18;;;;;;;11.38;2.83;;;;;;;2.95;100.00;100887.41;5206347;28;20531;-74
2023/04/14 01:00:54;;;;;;;15.75;3.50;;;;;;;3.03;100.00;100885.03;5224793;28;20029;-75
2023/04/14 01:03:25;;;;;;;10.80;3.20;;;;;;;3.05;100.00;100877.78;5209538;28;20621;-75
2023/04/14 01:05:55;;;;;;;11.82;3.63;;;;;;;3.06;100.00;100887.44;5225086;28;20056;-74
2023/04/14 01:08:26;;;;;;;6.40;2.90;;;;;;;3.06;100.00;100883.94;5224299;28;20174;-74
2023/04/14 01:10:58;;;;;;;13.35;2.95;;;;;;;3.02;100.00;100888.63;5224447;28;20028;-75
2023/04/14 01:14:04;;;;;;;12.43;2.85;;;;;;;2.99;100.00;100893.31;5224605;28;20028;-74
2023/04/14 01:16:58;;;;;;;11.77;3.53;;;;;;;2.99;100.00;100894.16;5224319;28;20060;-75
2023/04/14 01:19:57;;;;;;;12.15;3.22;;;;;;;3.01;100.00;100881.66;5223991;28;20021;-75
2023/04/14 01:22:30;;;;;;;6.93;2.78;;;;;;;3.02;100.00;100888.63;5223584;28;20052;-75
2023/04/14 01:25:17;;;;;;;11.20;3.33;;;;;;;3.04;100.00;100892.00;5206303;28;20031;-74
2023/04/14 01:28:26;;;;;;;13.63;3.38;;;;;;;3.05;100.00;100887.53;5223906;28;20057;-75
2023/04/14 01:31:14;;;;;;;10.57;3.03;;;;;;;3.05;100.00;100892.84;5223426;28;20033;-75
2023/04/14 01:33:53;;;;;;;8.50;3.63;;;;;;;3.02;100.00;100888.63;5223835;28;20021;-74
2023/04/14 01:36:33;;;;;;;15.10;3.35;;;;;;;2.98;100.00;100892.47;5223851;28;20033;-74
2023/04/14 01:39:07;;;;;;;13.95;3.78;;;;;;;3.01;100.00;100894.03;5223665;28;20017;-74
2023/04/14 01:41:42;;;;;;;8.82;3.60;;;;;;;3.03;100.00;100892.13;5223788;28;20037;-75
2023/04/14 01:44:16;;;;;;;16.02;3.70;;;;;;;3.03;100.00;100892.97;5193728;28;20116;-75
2023/04/14 01:46:49;;;;;;;12.07;3.45;;;;;;;3.04;100.00;100886.69;5205547;28;20079;-75
2023/04/14 01:49:22;;;;;;;11.15;3.50;;;;;;;3.06;100.00;100892.75;5223797;28;20327;-75
2023/04/14 01:51:54;;;;;;;13.65;3.63;;;;;;;3.09;100.00;100883.72;5228813;28;20712;-75
2023/04/14 01:54:26;;;;;;;10.80;3.15;;;;;;;3.09;100.00;100884.53;5213106;28;20027;-75
2023/04/14 01:57:00;;;;;;;14.38;4.32;;;;;;;3.08;100.00;100882.03;5230463;28;20113;-75
2023/04/14 01:59:33;;;;;;;7.70;3.00;;;;;;;3.06;100.00;100883.94;5230495;28;20083;-75
2023/04/14 02:02:07;;;;;;;9.75;2.88;;;;;;;3.02;100.00;100870.09;5230627;28;20028;-74
2023/04/14 02:04:42;;;;;;;8.60;3.00;;;;;;;3.01;100.00;100870.19;5230571;28;20500;-75
2023/04/14 02:07:12;;;;;;;8.98;3.22;;;;;;;2.99;100.00;100880.06;5230448;28;20075;-74
2023/04/14 02:09:44;;;;;;;13.40;3.22;;;;;;;2.98;100.00;100881.03;5230289;28;20024;-75
2023/04/14 02:12:18;;;;;;;10.23;3.70;;;;;;;2.97;100.00;100879.34;5230413;28;20040;-75
2023/04/14 02:14:50;;;;;;;11.05;3.10;;;;;;;2.94;100.00;100879.56;5230631;28;20385;-74
2023/04/14 02:17:21;;;;;;;9.20;3.55;;;;;;;2.93;100.00;100883.19;5229988;28;20036;-75
2023/04/14 02:19:54;;;;;;;9.45;3.40;;;;;;;2.91;100.00;100872.69;5193045;28;20024;-74
2023/04/14 02:22:33;;;;;;;10.68;3.17;;;;;;;2.93;100.00;100877.88;5216413;28;20025;-75
2023/04/14 02:25:04;;;;;;;11.10;3.28;;;;;;;2.91;100.00;100869.19;5202667;28;20035;-75
2023/04/14 02:27:52;;;;;;;13.27;3.75;;;;;;;2.87;100.00;100867.75;5196731;28;20080;-74
2023/04/14 02:30:36;;;;;;;9.02;2.80;;;;;;;2.83;100.00;100865.34;5195609;28;20033;-75
2023/04/14 02:33:10;;;;;;;9.90;2.97;;;;;;;2.78;100.00;100864.00;5221159;28;20029;-75
2023/04/14 02:36:03;;;;;;;13.73;3.58;;;;;;;2.71;100.00;100862.75;5210811;28;20104;-75
2023/04/14 02:38:54;;;;;;;7.90;2.83;;;;;;;2.59;100.00;100875.97;5211617;28;20103;-74
2023/04/14 02:41:27;;;;;;;9.90;3.25;;;;;;;2.48;100.00;100877.72;5230273;28;20024;-75
2023/04/14 02:44:04;;;;;;;11.77;3.22;;;;;;;2.36;100.00;100879.47;5206194;28;20402;-74
2023/04/14 02:46:40;;;;;;;12.95;3.30;;;;;;;2.24;100.00;100878.56;5209791;28;20021;-75
2023/04/14 02:49:13;;;;;;;19.73;3.70;;;;;;;2.15;100.00;100868.63;5230417;28;20024;-74
2023/04/14 02:51:46;;;;;;;9.55;3.53;;;;;;;2.10;100.00;100873.41;5229532;28;20028;-74
2023/04/14 02:54:19;;;;;;;18.13;4.00;;;;;;;2.04;100.00;100876.50;5230017;28;20107;-74
2023/04/14 02:56:50;;;;;;;13.07;3.85;;;;;;;2.00;100.00;100875.03;5229481;28;20028;-75
2023/04/14 02:59:22;;;;;;;14.70;3.72;;;;;;;1.96;100.00;100871.78;5229158;28;20028;-74
2023/04/14 03:01:53;;;;;;;16.58;4.53;;;;;;;1.96;100.00;100884.19;5213140;28;20025;-74
2023/04/14 03:04:25;;;;;;;10.90;3.38;;;;;;;1.92;100.00;100885.34;5225888;28;20112;-75
2023/04/14 03:06:57;;;;;;;8.77;3.10;;;;;;;1.87;100.00;100888.31;5212881;28;20177;-75
2023/04/14 03:09:29;;;;;;;10.02;3.65;;;;;;;1.85;100.00;100884.91;5225650;28;20078;-75
2023/04/14 03:12:02;;;;;;;11.48;3.90;;;;;;;1.84;100.00;100890.31;5208298;28;20033;-74
2023/04/14 03:14:36;;;;;;;16.88;3.60;;;;;;;1.81;100.00;100889.59;5226111;28;20120;-74
2023/04/14 03:17:08;;;;;;;11.65;2.85;;;;;;;1.77;100.00;100896.06;5225218;28;20118;-75
2023/04/14 03:19:40;;;;;;;10.88;3.13;;;;;;;1.69;100.00;100901.03;5225544;28;20013;-74
2023/04/14 03:22:12;;;;;;;11.10;2.92;;;;;;;1.62;100.00;100901.59;5226034;28;20025;-74
2023/04/14 03:24:43;;;;;;;16.73;4.32;;;;;;;1.59;100.00;100897.34;5225916;28;20032;-74
2023/04/14 03:27:20;;;;;;;13.88;4.43;;;;;;;1.62;100.00;100902.44;5225266;28;20017;-74
2023/04/14 03:29:54;;;;;;;12.48;4.70;;;;;;;1.60;100.00;100896.38;5225594;28;20124;-75
2023/04/14 03:32:30;;;;;;;19.00;4.57;;;;;;;1.59;100.00;100897.34;5225883;28;20100;-74
2023/04/14 03:35:01;;;;;;;9.85;3.63;;;;;;;1.54;100.00;100892.38;5226014;28;20029;-75
2023/04/14 03:37:36;;;;;;;19.88;4.55;;;;;;;1.53;100.00;100892.50;5225411;28;20029;-75
2023/04/14 03:40:07;;;;;;;;;;;;;;;1.52;100.00;100899.59;5225888;28;20219;-75
2023/04/14 03:42:43;;;;;;;16.20;3.65;;;;;;;1.50;100.00;100906.75;5226446;28;19909;-75
2023/04/14 03:45:14;;;;;;;14.00;4.03;;;;;;;1.48;100.00;100897.25;5226067;28;20044;-74
2023/04/14 03:47:44;;;;;;;18.27;4.55;;;;;;;1.49;100.00;100902.44;5225587;28;20029;-74
2023/04/14 03:50:17;;;;;;;17.40;4.15;;;;;;;1.51;100.00;100897.91;5225162;28;20025;-74
2023/04/14 03:52:49;;;;;;;24.05;4.30;;;;;;;1.54;100.00;100895.00;5208031;28;20032;-74
2023/04/14 03:55:22;;;;;;;12.02;4.07;;;;;;;1.58;100.00;100898.31;5225700;28;20108;-74
2023/04/14 03:57:56;;;;;;;15.38;4.60;;;;;;;1.55;100.00;100899.34;5225186;28;20029;-74
2023/04/14 04:00:28;;;;;;;16.23;4.57;;;;;;;1.52;100.00;100894.28;5225480;28;20025;-74
2023/04/14 04:03:00;;;;;;;13.27;3.55;;;;;;;1.49;100.00;100894.50;5224936;28;20385;-74
2023/04/14 04:05:32;;;;;;;15.70;3.92;;;;;;;1.48;100.00;100902.53;5225791;28;20031;-75
2023/04/14 04:08:05;;;;;;;16.40;3.80;;;;;;;1.42;100.00;100889.75;5225032;28;20097;-72
2023/04/14 04:10:37;;;;;;;13.57;4.28;;;;;;;1.37;100.00;100900.66;5207631;28;20116;-75
2023/04/14 04:13:11;;;;;;;15.15;4.65;;;;;;;1.33;100.00;100899.16;5224852;28;20028;-74
2023/04/14 04:15:44;;;;;;;17.83;5.28;;;;;;;1.31;100.00;100900.22;5206578;28;20039;-75
2023/04/14 04:18:15;;;;;;;16.70;5.13;;;;;;;1.31;100.00;100901.06;5225202;28;20070;-74
2023/04/14 04:20:46;;;;;;;11.68;4.22;;;;;;;1.30;100.00;100904.66;5225103;28;20017;-75
2023/04/14 04:23:19;;;;;;;16.42;6.38;;;;;;;1.31;100.00;100905.53;5225287;28;20021;-74
2023/04/14 04:25:50;;;;;;;19.13;4.50;;;;;;;1.28;100.00;100899.47;5224429;28;20119;-74
2023/04/14 04:28:21;;;;;;;15.85;4.18;;;;;;;1.28;100.00;100893.34;5225010;28;20027;-74
2023/04/14 04:30:55;;;;;;;22.17;5.25;;;;;;;1.28;100.00;100904.75;5224759;28;20104;-75
2023/04/14 04:33:27;;;;;;;13.40;4.88;;;;;;;1.26;100.00;100901.38;5225056;28;20083;-74
2023/04/14 04:36:00;;;;;;;9.23;3.78;;;;;;;1.25;100.00;100907.59;5207072;28;20501;-73
2023/04/14 04:38:30;;;;;;;13.15;4.20;;;;;;;1.25;100.00;100904.94;5223766;28;20043;-75
2023/04/14 04:41:01;;;;;;;12.23;4.65;;;;;;;1.25;100.00;100897.03;5216774;28;20029;-73
2023/04/14 04:43:31;;;;;;;16.80;4.63;;;;;;;1.27;100.00;100899.59;5219882;28;20041;-72
2023/04/14 04:46:03;;;;;;;21.80;4.43;;;;;;;1.27;100.00;100896.94;5206807;28;20029;-73
2023/04/14 04:48:33;;;;;;;19.52;4.60;;;;;;;1.27;100.00;100900.44;5223993;28;20052;-73
2023/04/14 04:51:04;;;;;;;14.38;4.45;;;;;;;1.28;100.00;100888.91;5224082;28;20028;-73
2023/04/14 04:53:34;;;;;;;13.45;4.20;;;;;;;1.29;100.00;100887.94;5224469;28;20515;-72
2023/04/14 04:56:05;;;;;;;18.55;4.47;;;;;;;1.32;100.00;100884.25;5224511;28;20103;-73
2023/04/14 04:58:36;;;;;;;16.98;3.92;;;;;;;1.35;100.00;100886.66;5224239;28;20105;-73
2023/04/14 05:01:08;;;;;;;15.25;4.35;;;;;;;1.35;100.00;100886.66;5224019;28;20032;-73
2023/04/14 05:03:38;;;;;;;17.20;5.10;;;;;;;1.36;100.00;100892.84;5206534;28;20029;-73
2023/04/14 05:06:09;;;;;;;13.75;4.75;;;;;;;1.32;100.00;100883.41;5224061;28;20036;-73
2023/04/14 05:08:39;;;;;;;20.23;4.95;;;;;;;1.31;100.00;100887.84;5224218;28;20403;-73
2023/04/14 05:11:10;;;;;;;17.70;4.88;;;;;;;1.31;100.00;100887.00;5224037;28;20036;-73
2023/04/14 05:13:40;;;;;;;14.68;5.07;;;;;;;1.31;100.00;100882.56;5223887;28;20036;-73
2023/04/14 05:16:13;;;;;;;16.42;5.13;;;;;;;1.32;100.00;100888.69;5223911;28;20028;-73
2023/04/14 05:18:43;;;;;;;29.50;4.97;;;;;;;1.35;100.00;100891.13;5223962;28;20021;-72
2023/04/14 05:21:14;;;;;;;16.25;5.05;;;;;;;1.40;100.00;100891.63;5223735;28;20505;-72
2023/04/14 05:23:45;;;;;;;18.60;4.63;;;;;;;1.47;100.00;100891.13;5224275;28;20024;-73
2023/04/14 05:26:16;;;;;;;20.50;5.95;;;;;;;1.57;100.00;100893.13;5222911;28;20432;-72
2023/04/14 05:28:46;;;;;;;16.95;5.40;;;;;;;1.69;100.00;100895.75;5223532;28;20082;-73
2023/04/14 05:31:17;;;;;;;17.00;4.95;;;;;;;1.75;100.00;100908.53;5230914;28;20086;-72
2023/04/14 05:33:48;;;;;;;20.75;4.97;;;;;;;1.85;100.00;100915.81;5226983;28;20531;-73
2023/04/14 05:36:18;;;;;;;30.83;6.70;;;;;;;1.95;100.00;100917.69;5225486;28;20500;-72
2023/04/14 05:38:48;;;;;;;20.60;6.38;;;;;;;2.11;100.00;100909.53;5223841;28;20076;-72
2023/04/14 05:41:20;;;;;;;16.05;4.97;;;;;;;2.29;100.00;100907.34;5224690;28;20143;-72
2023/04/14 05:43:51;;;;;;;20.15;6.18;;;;;;;2.39;100.00;100912.81;5214936;28;20036;-73
2023/04/14 05:46:21;;;;;;;23.77;5.22;;;;;;;2.49;100.00;100912.03;5207337;28;20028;-73
2023/04/14 05:48:52;;;;;;;17.80;5.13;;;;;;;2.60;100.00;100911.22;5224455;28;20033;-73
2023/04/14 05:51:22;;;;;;;16.75;5.50;;;;;;;2.73;100.00;100914.69;5223767;28;20131;-73
2023/04/14 05:53:54;;;;;;;21.20;6.43;;;;;;;2.86;100.00;100919.88;5223857;28;20021;-73
2023/04/14 05:56:24;;;;;;;12.80;4.47;;;;;;;3.00;100.00;100914.41;5223566;28;20040;-73
2023/04/14 05:58:55;;;;;;;13.15;4.70;;;;;;;3.15;100.00;100914.19;5223752;28;20067;-73
2023/04/14 06:01:26;;;;;;;13.30;5.05;;;;;;;3.26;100.00;100917.75;5223224;28;20488;-73
2023/04/14 06:03:56;;;;;;;24.52;6.30;;;;;;;3.40;100.00;100914.00;5223185;28;20028;-73
2023/04/14 06:06:27;;;;;;;20.33;5.60;;;;;;;3.56;100.00;100913.66;5223499;28;20029;-73
2023/04/14 06:08:57;;;;;;;22.02;6.25;;;;;;;3.82;100.00;100912.47;5205662;28;20024;-73
2023/04/14 06:11:28;;;;;;;18.73;6.10;;;;;;;4.44;100.00;100907.56;5223349;28;20025;-73
2023/04/14 06:14:00;;;;;;;14.23;5.13;;;;;;;5.35;100.00;100907.84;5205601;28;20021;-73
2023/04/14 06:16:31;;;;;;;14.18;4.85;;;;;;;6.46;100.00;100910.53;5222318;28;20060;-74
2023/04/14 06:19:02;;;;;;;13.48;5.03;;;;;;;7.22;100.00;100899.97;5223242;28;20512;-73
2023/04/14 06:21:32;;;;;;;13.38;4.57;;;;;;;7.77;100.00;100889.41;5223217;28;20120;-74
2023/04/14 06:24:05;;;;;;;18.40;3.78;;;;;;;8.23;100.00;100884.13;5223293;28;20033;-74
2023/04/14 06:26:36;;;;;;;11.43;3.88;;;;;;;8.23;100.00;100882.31;5204866;28;20116;-74
2023/04/14 06:29:06;;;;;;;9.63;3.08;;;;;;;8.36;100.00;100881.09;5205131;28;20025;-74
2023/04/14 06:31:37;;;;;;;10.63;3.78;;;;;;;8.68;100.00;100885.94;5205567;28;20033;-73
2023/04/14 06:34:07;;;;;;;11.13;3.33;;;;;;;8.87;100.00;100884.97;5223221;28;20049;-74
2023/04/14 06:36:38;;;;;;;15.00;4.00;;;;;;;8.79;100.00;100883.06;5205151;28;20029;-74
2023/04/14 06:39:08;;;;;;;10.05;3.20;;;;;;;8.69;100.00;100883.16;5225927;28;20172;-73
2023/04/14 06:41:39;;;;;;;9.13;3.00;;;;;;;8.77;100.00;100880.53;5227266;28;20020;-74
2023/04/14 06:44:10;;;;;;;11.93;3.20;;;;;;;8.80;100.00;100872.19;5227191;28;20028;-74
2023/04/14 06:46:40;;;;;;;9.32;2.75;;;;;;;8.51;100.00;100871.59;5226817;28;20710;-74
2023/04/14 06:49:11;;;;;;;8.88;2.70;;;;;;;8.53;100.00;100866.91;5208735;28;20107;-74
2023/04/14 06:51:41;;;;;;;10.90;2.85;;;;;;;8.34;100.00;100873.25;5226104;28;20037;-73
2023/04/14 06:54:11;;;;;;;12.15;3.03;;;;;;;8.67;100.00;100873.56;5227013;28;20434;-73
2023/04/14 06:56:42;;;;;;;8.02;3.05;;;;;;;8.91;100.00;100870.28;5226535;28;20028;-73
2023/04/14 06:59:12;;;;;;;9.07;2.90;;;;;;;9.16;100.00;100864.13;5226652;28;20021;-74
2023/04/14 07:01:43;;;;;;;8.68;2.70;;;;;;;9.40;100.00;100868.81;5226589;28;20021;-74
2023/04/14 07:04:14;;;;;;;8.88;2.65;;;;;;;9.62;100.00;100869.25;5226147;28;20029;-74
2023/04/14 07:06:47;;;;;;;8.30;2.72;;;;;;;10.15;100.00;100855.56;5226204;28;20027;-73
2023/04/14 07:09:19;;;;;;;10.50;2.95;;;;;;;10.50;100.00;100856.34;5226119;28;20031;-74
2023/04/14 07:11:51;;;;;;;6.07;2.30;;;;;;;10.53;100.00;100856.00;5226366;28;20513;-74
2023/04/14 07:14:23;;;;;;;7.40;2.72;;;;;;;10.86;100.00;100856.88;5226206;28;20017;-74
2023/04/14 07:16:53;;;;;;;8.27;2.10;;;;;;;10.50;100.00;100846.47;5208023;28;20037;-74
2023/04/14 07:19:24;;;;;;;6.85;2.17;;;;;;;10.43;100.00;100852.63;5226018;28;20477;-73
2023/04/14 07:21:55;;;;;;;5.45;2.05;;;;;;;9.78;100.00;100845.22;5226356;28;20067;-74
2023/04/14 07:24:25;;;;;;;5.70;1.60;;;;;;;9.96;100.00;100847.81;5225895;28;20036;-73
2023/04/14 07:26:56;;;;;;;7.55;2.03;;;;;;;10.58;100.00;100846.44;5225851;28;20036;-73
2023/04/14 07:29:28;;;;;;;5.03;1.90;;;;;;;10.57;100.00;100844.78;5225583;28;20017;-77
2023/04/14 07:31:58;;;;;;;5.57;1.65;;;;;;;10.71;100.00;100843.28;5226525;28;20021;-74
2023/04/14 07:34:28;;;;;;;8.40;1.80;;;;;;;10.61;100.00;100850.66;5226180;28;20409;-74
2023/04/14 07:36:59;;;;;;;4.15;1.83;;;;;;;10.70;100.00;100841.63;5225665;28;20025;-74
2023/04/14 07:39:30;;;;;;;10.30;4.35;;;;;;;11.12;100.00;100836.03;5225580;28;20035;-74
2023/04/14 07:42:00;;;;;;;8.82;4.47;;;;;;;11.38;100.00;100835.81;5225815;28;20155;-74
2023/04/14 07:44:32;;;;;;;15.70;6.13;;;;;;;11.91;100.00;100833.50;5225999;28;20085;-74
2023/04/14 07:47:02;;;;;;;5.65;2.35;;;;;;;11.63;100.00;100838.44;5225578;28;20489;-74
2023/04/14 07:49:35;;;;;;;16.58;7.88;;;;;;;12.06;100.00;100830.91;5225333;28;20035;-74
2023/04/14 07:52:05;;;;;;;8.23;3.05;;;;;;;11.86;100.00;100830.50;5225221;28;20036;-74
2023/04/14 07:54:36;;;;;;;8.75;2.10;;;;;;;12.22;100.00;100825.44;5226042;28;20021;-73
2023/04/14 07:57:08;;;;;;;4.53;1.48;;;;;;;12.25;100.00;100829.59;5225568;28;20028;-74
2023/04/14 07:59:41;;;;;;;3.25;1.35;;;;;;;11.79;100.00;100826.78;5225751;28;20021;-74
2023/04/14 08:02:12;;;;;;;8.75;1.25;;;;;;;11.67;100.00;100832.53;5225748;28;20033;-74
2023/04/14 08:04:43;;;;;;;5.90;2.17;;;;;;;12.14;100.00;100825.47;5225353;28;20036;-74
2023/04/14 08:07:14;;;;;;;9.95;3.00;;;;;;;12.80;100.00;100828.53;5225549;28;20501;-74
2023/04/14 08:09:46;;;;;;;8.43;1.80;;;;;;;12.88;100.00;100831.16;5225383;28;20021;-74
2023/04/14 08:12:17;;;;;;;4.35;1.75;;;;;;;12.41;100.00;100824.97;5225584;28;20108;-74
2023/04/14 08:14:47;;;;;;;3.38;1.33;;;;;;;12.76;100.00;100821.84;5225461;28;20115;-74
2023/04/14 08:17:18;;;;;;;4.55;1.60;;;;;;;13.02;100.00;100822.28;5224628;28;20029;-74
2023/04/14 08:19:49;;;;;;;7.60;1.55;;;;;;;13.67;100.00;100826.19;5217479;28;20026;-73
2023/04/14 08:22:20;;;;;;;2.67;1.13;;;;;;;13.93;100.00;100820.28;5215166;28;20025;-75
2023/04/14 08:24:52;;;;;;;3.97;1.30;;;;;;;13.56;100.00;100816.72;5222965;28;20037;-74
2023/04/14 08:27:22;;;;;;;5.70;1.50;;;;;;;13.63;100.00;100816.78;5238271;28;20028;-74
2023/04/14 08:29:53;;;;;;;2.90;1.00;;;;;;;13.32;100.00;100814.28;5235140;28;20397;-74
2023/04/14 08:32:24;;;;;;;3.67;1.23;;;;;;;13.27;100.00;100814.84;5229807;28;20044;-74
2023/04/14 08:34:55;;;;;;;4.07;1.05;;;;;;;12.96;100.00;100809.56;5234152;28;20029;-74
2023/04/14 08:37:25;;;;;;;3.15;1.13;;;;;;;12.96;100.00;100812.25;5229970;28;20020;-74
2023/04/14 08:39:56;;;;;;;3.53;1.17;;;;;;;12.27;100.00;100806.91;5226869;28;20029;-74
2023/04/14 08:42:26;;;;;;;6.65;1.70;;;;;;;12.94;100.00;100798.94;5228629;28;20020;-75
2023/04/14 08:44:57;;;;;;;5.20;1.27;;;;;;;13.30;100.00;100802.84;5216923;28;20024;-74
2023/04/14 08:47:30;;;;;;;4.53;1.58;;;;;;;13.76;100.00;100800.78;5235644;28;20028;-74
2023/04/14 08:50:06;;;;;;;2.90;1.38;;;;;;;13.65;100.00;100795.84;5231592;28;20424;-75
2023/04/14 08:52:40;;;;;;;2.63;0.90;;;;;;;13.42;100.00;100801.38;5230217;28;20024;-75
2023/04/14 08:55:12;;;;;;;4.73;1.10;;;;;;;13.52;100.00;100801.94;5231551;28;20104;-74
2023/04/14 08:57:43;;;;;;;4.78;1.55;;;;;;;13.98;100.00;100805.19;5233597;28;20373;-75
2023/04/14 09:00:14;;;;;;;4.45;1.52;;;;;;;13.81;100.00;100798.38;5232969;28;20024;-74
2023/04/14 09:02:45;;;;;;;3.97;1.33;;;;;;;13.84;100.00;100794.44;5212058;28;20028;-74
2023/04/14 09:05:17;;;;;;;6.78;1.83;;;;;;;14.57;100.00;100795.28;5234465;28;20841;-74
2023/04/14 09:07:48;;;;;;;5.05;1.42;;;;;;;14.00;100.00;100789.66;5215422;28;20017;-75
2023/04/14 09:10:20;;;;;;;5.35;1.55;;;;;;;13.51;100.00;100791.34;5226425;28;20563;-74
2023/04/14 09:12:53;;;;;;;3.55;1.00;;;;;;;13.63;100.00;100789.84;5236791;28;20028;-74
2023/04/14 09:15:26;;;;;;;5.00;1.60;;;;;;;13.76;100.00;100778.41;5216667;28;20024;-75
2023/04/14 09:17:56;;;;;;;7.45;1.48;;;;;;;13.73;100.00;100772.34;5213653;28;20111;-74
2023/04/14 09:20:28;;;;;;;9.60;1.63;;;;;;;13.65;100.00;100779.69;5233348;28;20021;-75
2023/04/14 09:22:58;;;;;;;10.70;2.20;;;;;;;13.70;100.00;100772.72;5227834;28;20772;-74
2023/04/14 09:25:29;;;;;;;5.82;1.42;;;;;;;14.06;100.00;100773.75;5233636;28;20035;-74
2023/04/14 09:27:59;;;;;;;16.35;2.80;;;;;;;13.99;100.00;100763.72;5227525;28;20020;-74
2023/04/14 09:30:30;;;;;;;5.95;1.48;;;;;;;13.52;100.00;100771.44;5231518;28;20493;-74
2023/04/14 09:33:06;;;;;;;5.22;1.30;;;;;;;13.44;100.00;100766.97;5225540;28;20020;-74
2023/04/14 09:35:54;;;;;;;9.25;1.65;;;;;;;13.68;100.00;100761.28;5210613;28;20020;-74
2023/04/14 09:38:44;;;;;;;4.72;1.25;;;;;;;13.20;100.00;100763.53;5228686;28;20041;-74
2023/04/14 09:41:16;;;;;;;8.93;2.17;;;;;;;13.49;100.00;100759.16;5236670;28;20445;-74
2023/04/14 09:43:46;;;;;;;4.30;1.40;;;;;;;13.37;100.00;100756.13;5235407;28;20107;-75
2023/04/14 09:46:17;;;;;;;6.30;1.52;;;;;;;12.95;100.00;100765.66;5232915;28;20103;-75
2023/04/14 09:48:51;;;;;;;7.45;1.50;;;;;;;12.28;100.00;100762.84;5229353;28;20485;-75
2023/04/14 09:51:25;;;;;;;5.82;1.70;;;;;;;12.63;100.00;100763.25;5237190;28;20032;-74
2023/04/14 09:54:33;;;;;;;3.80;1.40;;;;;;;12.50;100.00;100763.00;5229931;28;20393;-74
2023/04/14 09:57:03;;;;;;;6.30;1.52;;;;;;;12.64;100.00;100746.91;5234728;28;20452;-73
2023/04/14 09:59:35;;;;;;;3.72;1.17;;;;;;;12.76;100.00;100743.78;5218284;28;20048;-74
2023/04/14 10:02:08;;;;;;;5.80;1.45;;;;;;;12.92;100.00;100747.16;5227648;28;20124;-74
2023/04/14 10:04:38;;;;;;;4.18;1.50;;;;;;;13.08;100.00;100751.53;5235609;28;20075;-74
2023/04/14 10:07:11;;;;;;;5.78;1.67;;;;;;;12.39;100.00;100748.13;5234475;28;20488;-74
2023/04/14 10:09:41;;;;;;;4.80;1.48;;;;;;;12.93;100.00;100745.28;5235047;28;20032;-74
2023/04/14 10:12:13;;;;;;;5.82;1.70;;;;;;;13.48;100.00;100747.56;5239720;28;20052;-74
2023/04/14 10:14:44;;;;;;;4.75;1.50;;;;;;;13.15;100.00;100747.09;5232157;28;20028;-75
2023/04/14 10:17:15;;;;;;;4.95;2.00;;;;;;;13.06;100.00;100734.72;5240846;28;20346;-74
2023/04/14 10:19:46;;;;;;;4.10;1.58;;;;;;;12.93;100.00;100734.53;5215416;28;20396;-74
2023/04/14 10:22:16;;;;;;;3.83;1.40;;;;;;;13.40;100.00;100725.25;5232892;28;20058;-75
2023/04/14 10:24:48;;;;;;;6.97;1.45;;;;;;;13.71;100.00;100728.56;5230173;28;20784;-74
2023/04/14 10:27:20;;;;;;;2.78;1.40;;;;;;;13.06;100.00;100736.59;5234264;28;20455;-74
2023/04/14 10:29:50;;;;;;;9.68;2.00;;;;;;;13.05;100.00;100724.97;5235403;28;20435;-74
2023/04/14 10:32:22;;;;;;;8.13;1.70;;;;;;;13.18;100.00;100727.84;5232961;28;20050;-74
2023/04/14 10:34:58;;;;;;;6.28;1.50;;;;;;;13.26;100.00;100723.44;5218087;28;20029;-74
2023/04/14 10:37:28;;;;;;;5.15;1.55;;;;;;;13.54;100.00;100719.00;5232123;28;20025;-74
2023/04/14 10:40:03;;;;;;;4.55;1.42;;;;;;;13.77;100.00;100715.34;5236645;28;20031;-74
2023/04/14 10:42:53;;;;;;;4.53;1.35;;;;;;;13.60;100.00;100718.25;5239798;28;20025;-75
2023/04/14 10:45:24;;;;;;;9.73;1.90;;;;;;;12.74;100.00;100713.50;5235498;28;20020;-74
2023/04/14 10:47:55;;;;;;;4.97;1.20;;;;;;;12.59;100.00;100714.31;5220924;28;20036;-74
2023/04/14 10:50:27;;;;;;;7.00;1.20;;;;;;;13.00;100.00;100711.22;5221158;28;20025;-74
2023/04/14 10:53:05;;;;;;;4.65;1.50;;;;;;;13.29;100.00;100707.72;5228282;28;20107;-74
2023/04/14 10:55:45;;;;;;;5.10;1.08;;;;;;;12.95;100.00;100711.78;5233049;28;20505;-75
2023/04/14 10:58:19;;;;;;;4.75;1.08;;;;;;;12.89;100.00;100700.91;5233212;28;20486;-74
2023/04/14 11:00:50;;;;;;;4.10;1.17;;;;;;;12.64;100.00;100706.53;5215046;28;20102;-74
2023/04/14 11:03:21;;;;;;;4.68;1.15;;;;;;;12.45;100.00;100690.94;5238218;28;20066;-74
2023/04/14 11:05:52;;;;;;;7.78;1.20;;;;;;;12.35;100.00;100695.69;5238410;28;20040;-74
2023/04/14 11:08:26;;;;;;;6.07;1.17;;;;;;;12.39;100.00;100697.84;5238033;28;20481;-74
2023/04/14 11:11:15;;;;;;;5.25;0.90;;;;;;;12.79;100.00;100690.41;5234515;28;20024;-74
2023/04/14 11:14:24;;;;;;;6.38;1.20;;;;;;;12.65;100.00;100691.22;5217638;28;20017;-75
2023/04/14 11:17:32;;;;;;;6.07;1.02;;;;;;;12.60;100.00;100699.88;5216238;28;20111;-74
2023/04/14 11:20:20;;;;;;;4.57;1.00;;;;;;;12.92;100.00;100687.91;5217418;28;20770;-74
2023/04/14 11:22:52;;;;;;;8.38;1.25;;;;;;;13.31;100.00;100694.91;5233447;28;20703;-74
2023/04/14 11:25:23;;;;;;;5.55;1.10;;;;;;;13.49;100.00;100686.41;5217932;28;20032;-74
2023/04/14 11:27:53;;;;;;;6.38;1.13;;;;;;;13.24;100.00;100687.75;5229795;28;20024;-74
2023/04/14 11:30:24;;;;;;;3.10;0.82;;;;;;;13.09;100.00;100683.16;5217866;28;20393;-75
2023/04/14 11:32:56;;;;;;;7.45;1.17;;;;;;;12.90;100.00;100684.59;5239017;28;20123;-74
2023/04/14 11:35:28;;;;;;;1.60;0.90;;;;;;;13.05;100.00;100684.59;5233805;28;20031;-74
2023/04/14 11:38:00;;;;;;;3.97;1.10;;;;;;;13.39;100.00;100683.16;5238108;28;20069;-74
2023/04/14 11:40:34;;;;;;;6.30;1.02;;;;;;;13.70;100.00;100677.50;5217070;28;20020;-75
2023/04/14 11:43:05;;;;;;;6.30;0.98;;;;;;;13.91;100.00;100677.56;5236299;28;20039;-74
2023/04/14 11:45:41;;;;;;;10.55;2.10;;;;;;;14.23;100.00;100678.03;5240635;28;20439;-75